sensor_id;sensor_type;location;lat;lon;timestamp;P1;durP1;ratioP1;P2;durP2;ratioP2
9884;SDS011;4981;50.966;4.842;2023-05-23T00:00:47;40.20;;;26.97;;
9884;SDS011;4981;50.966;4.842;2023-05-23T00:03:16;37.80;;;25.63;;
9884;SDS011;4981;50.966;4.842;2023-05-23T00:05:46;41.50;;;27.10;;
9884;SDS011;4981;50.966;4.842;2023-05-23T00:08:14;24.50;;;21.13;;
9884;SDS011;4981;50.966;4.842;2023-05-23T00:10:41;38.50;;;26.13;;
9884;SDS011;4981;50.966;4.842;2023-05-23T00:13:10;42.33;;;26.43;;
9884;SDS011;4981;50.966;4.842;2023-05-23T00:15:39;38.87;;;27.57;;
9884;SDS011;4981;50.966;4.842;2023-05-23T00:18:06;39.77;;;27.27;;
9884;SDS011;4981;50.966;4.842;2023-05-23T00:20:35;45.83;;;36.45;;
9884;SDS011;4981;50.966;4.842;2023-05-23T00:23:05;63.40;;;45.67;;
9884;SDS011;4981;50.966;4.842;2023-05-23T00:25:33;45.17;;;28.27;;
9884;SDS011;4981;50.966;4.842;2023-05-23T00:28:00;35.37;;;26.47;;
9884;SDS011;4981;50.966;4.842;2023-05-23T00:30:30;37.10;;;27.33;;
9884;SDS011;4981;50.966;4.842;2023-05-23T00:32:57;39.33;;;26.87;;
9884;SDS011;4981;50.966;4.842;2023-05-23T00:35:25;37.20;;;25.63;;
9884;SDS011;4981;50.966;4.842;2023-05-23T00:37:52;37.67;;;25.80;;
9884;SDS011;4981;50.966;4.842;2023-05-23T00:40:19;37.43;;;24.60;;
9884;SDS011;4981;50.966;4.842;2023-05-23T00:42:46;37.30;;;26.03;;
9884;SDS011;4981;50.966;4.842;2023-05-23T00:45:14;36.37;;;24.00;;
9884;SDS011;4981;50.966;4.842;2023-05-23T00:47:43;34.80;;;24.00;;
9884;SDS011;4981;50.966;4.842;2023-05-23T00:50:12;31.93;;;23.03;;
9884;SDS011;4981;50.966;4.842;2023-05-23T00:52:39;37.30;;;26.10;;
9884;SDS011;4981;50.966;4.842;2023-05-23T00:55:08;42.93;;;23.83;;
9884;SDS011;4981;50.966;4.842;2023-05-23T00:57:35;34.90;;;22.23;;
9884;SDS011;4981;50.966;4.842;2023-05-23T01:00:05;31.70;;;22.40;;
9884;SDS011;4981;50.966;4.842;2023-05-23T01:02:35;36.37;;;21.93;;
9884;SDS011;4981;50.966;4.842;2023-05-23T01:05:09;34.63;;;22.90;;
9884;SDS011;4981;50.966;4.842;2023-05-23T01:07:38;37.70;;;22.20;;
9884;SDS011;4981;50.966;4.842;2023-05-23T01:10:06;35.07;;;22.83;;
9884;SDS011;4981;50.966;4.842;2023-05-23T01:12:36;37.93;;;24.53;;
9884;SDS011;4981;50.966;4.842;2023-05-23T01:15:09;37.87;;;24.67;;
9884;SDS011;4981;50.966;4.842;2023-05-23T01:17:40;41.40;;;25.30;;
9884;SDS011;4981;50.966;4.842;2023-05-23T01:20:16;34.90;;;24.87;;
9884;SDS011;4981;50.966;4.842;2023-05-23T01:22:55;35.87;;;23.07;;
9884;SDS011;4981;50.966;4.842;2023-05-23T01:25:38;35.83;;;23.73;;
9884;SDS011;4981;50.966;4.842;2023-05-23T01:28:15;32.27;;;22.80;;
9884;SDS011;4981;50.966;4.842;2023-05-23T01:30:44;30.40;;;22.23;;
9884;SDS011;4981;50.966;4.842;2023-05-23T01:33:13;32.83;;;20.80;;
9884;SDS011;4981;50.966;4.842;2023-05-23T01:35:42;28.70;;;19.80;;
9884;SDS011;4981;50.966;4.842;2023-05-23T01:38:10;39.00;;;31.50;;
9884;SDS011;4981;50.966;4.842;2023-05-23T01:40:37;23.03;;;17.33;;
9884;SDS011;4981;50.966;4.842;2023-05-23T01:43:04;24.73;;;17.57;;
9884;SDS011;4981;50.966;4.842;2023-05-23T01:45:33;21.13;;;15.93;;
9884;SDS011;4981;50.966;4.842;2023-05-23T01:48:01;23.27;;;15.80;;
9884;SDS011;4981;50.966;4.842;2023-05-23T01:50:30;16.23;;;13.53;;
9884;SDS011;4981;50.966;4.842;2023-05-23T01:52:58;22.07;;;13.67;;
9884;SDS011;4981;50.966;4.842;2023-05-23T01:55:25;21.23;;;14.27;;
9884;SDS011;4981;50.966;4.842;2023-05-23T01:57:54;24.02;;;15.32;;
9884;SDS011;4981;50.966;4.842;2023-05-23T02:00:22;19.37;;;14.10;;
9884;SDS011;4981;50.966;4.842;2023-05-23T02:02:50;17.07;;;12.67;;
9884;SDS011;4981;50.966;4.842;2023-05-23T02:05:20;23.93;;;15.27;;
9884;SDS011;4981;50.966;4.842;2023-05-23T02:07:47;28.50;;;17.97;;
9884;SDS011;4981;50.966;4.842;2023-05-23T02:10:14;25.00;;;14.60;;
9884;SDS011;4981;50.966;4.842;2023-05-23T02:12:41;21.17;;;15.00;;
9884;SDS011;4981;50.966;4.842;2023-05-23T02:15:08;25.33;;;15.03;;
9884;SDS011;4981;50.966;4.842;2023-05-23T02:17:36;23.40;;;16.27;;
9884;SDS011;4981;50.966;4.842;2023-05-23T02:20:07;22.10;;;16.30;;
9884;SDS011;4981;50.966;4.842;2023-05-23T02:22:35;24.00;;;15.70;;
9884;SDS011;4981;50.966;4.842;2023-05-23T02:25:02;27.67;;;15.63;;
9884;SDS011;4981;50.966;4.842;2023-05-23T02:27:29;23.03;;;15.60;;
9884;SDS011;4981;50.966;4.842;2023-05-23T02:29:56;20.70;;;15.60;;
9884;SDS011;4981;50.966;4.842;2023-05-23T02:32:23;22.87;;;15.40;;
9884;SDS011;4981;50.966;4.842;2023-05-23T02:34:51;20.23;;;14.00;;
9884;SDS011;4981;50.966;4.842;2023-05-23T02:37:19;18.63;;;13.53;;
9884;SDS011;4981;50.966;4.842;2023-05-23T02:39:46;18.53;;;14.00;;
9884;SDS011;4981;50.966;4.842;2023-05-23T02:42:13;17.53;;;13.07;;
9884;SDS011;4981;50.966;4.842;2023-05-23T02:44:40;18.33;;;11.70;;
9884;SDS011;4981;50.966;4.842;2023-05-23T02:47:07;16.70;;;12.10;;
9884;SDS011;4981;50.966;4.842;2023-05-23T02:49:34;19.33;;;12.37;;
9884;SDS011;4981;50.966;4.842;2023-05-23T02:52:01;19.67;;;12.50;;
9884;SDS011;4981;50.966;4.842;2023-05-23T02:54:30;15.37;;;11.30;;
9884;SDS011;4981;50.966;4.842;2023-05-23T02:56:57;15.43;;;11.53;;
9884;SDS011;4981;50.966;4.842;2023-05-23T02:59:24;15.63;;;11.83;;
9884;SDS011;4981;50.966;4.842;2023-05-23T03:01:51;15.40;;;11.37;;
9884;SDS011;4981;50.966;4.842;2023-05-23T03:04:18;18.63;;;12.33;;
9884;SDS011;4981;50.966;4.842;2023-05-23T03:06:45;18.53;;;12.50;;
9884;SDS011;4981;50.966;4.842;2023-05-23T03:09:13;22.73;;;12.53;;
9884;SDS011;4981;50.966;4.842;2023-05-23T03:11:42;22.50;;;13.03;;
9884;SDS011;4981;50.966;4.842;2023-05-23T03:14:09;18.77;;;13.93;;
9884;SDS011;4981;50.966;4.842;2023-05-23T03:16:37;21.83;;;14.60;;
9884;SDS011;4981;50.966;4.842;2023-05-23T03:19:04;25.40;;;14.83;;
9884;SDS011;4981;50.966;4.842;2023-05-23T03:21:31;24.27;;;15.03;;
9884;SDS011;4981;50.966;4.842;2023-05-23T03:23:59;23.23;;;15.13;;
9884;SDS011;4981;50.966;4.842;2023-05-23T03:26:26;22.63;;;15.00;;
9884;SDS011;4981;50.966;4.842;2023-05-23T03:28:54;20.03;;;14.90;;
9884;SDS011;4981;50.966;4.842;2023-05-23T03:31:21;25.83;;;15.07;;
9884;SDS011;4981;50.966;4.842;2023-05-23T03:33:48;18.57;;;13.63;;
9884;SDS011;4981;50.966;4.842;2023-05-23T03:36:15;26.50;;;13.97;;
9884;SDS011;4981;50.966;4.842;2023-05-23T03:38:42;19.33;;;12.20;;
9884;SDS011;4981;50.966;4.842;2023-05-23T03:41:09;18.40;;;11.90;;
9884;SDS011;4981;50.966;4.842;2023-05-23T03:43:36;18.37;;;11.33;;
9884;SDS011;4981;50.966;4.842;2023-05-23T03:46:04;21.13;;;11.43;;
9884;SDS011;4981;50.966;4.842;2023-05-23T03:48:31;21.47;;;11.83;;
9884;SDS011;4981;50.966;4.842;2023-05-23T03:50:58;13.73;;;11.20;;
9884;SDS011;4981;50.966;4.842;2023-05-23T03:53:25;17.90;;;10.77;;
9884;SDS011;4981;50.966;4.842;2023-05-23T03:55:52;19.47;;;11.77;;
9884;SDS011;4981;50.966;4.842;2023-05-23T03:58:19;20.83;;;12.27;;
9884;SDS011;4981;50.966;4.842;2023-05-23T04:00:46;19.73;;;11.00;;
9884;SDS011;4981;50.966;4.842;2023-05-23T04:03:14;20.93;;;11.90;;
9884;SDS011;4981;50.966;4.842;2023-05-23T04:05:42;20.63;;;11.10;;
9884;SDS011;4981;50.966;4.842;2023-05-23T04:08:08;17.50;;;11.37;;
9884;SDS011;4981;50.966;4.842;2023-05-23T04:10:35;16.03;;;10.93;;
9884;SDS011;4981;50.966;4.842;2023-05-23T04:13:02;14.60;;;10.13;;
9884;SDS011;4981;50.966;4.842;2023-05-23T04:15:30;17.27;;;10.77;;
9884;SDS011;4981;50.966;4.842;2023-05-23T04:17:58;13.73;;;9.97;;
9884;SDS011;4981;50.966;4.842;2023-05-23T04:20:27;16.47;;;9.87;;
9884;SDS011;4981;50.966;4.842;2023-05-23T04:22:54;16.43;;;9.70;;
9884;SDS011;4981;50.966;4.842;2023-05-23T04:25:21;13.53;;;9.17;;
9884;SDS011;4981;50.966;4.842;2023-05-23T04:27:48;14.13;;;8.87;;
9884;SDS011;4981;50.966;4.842;2023-05-23T04:30:15;14.17;;;9.03;;
9884;SDS011;4981;50.966;4.842;2023-05-23T04:32:42;13.57;;;8.80;;
9884;SDS011;4981;50.966;4.842;2023-05-23T04:35:10;16.37;;;8.93;;
9884;SDS011;4981;50.966;4.842;2023-05-23T04:37:38;14.47;;;9.20;;
9884;SDS011;4981;50.966;4.842;2023-05-23T04:40:06;15.47;;;9.70;;
9884;SDS011;4981;50.966;4.842;2023-05-23T04:42:34;16.27;;;9.83;;
9884;SDS011;4981;50.966;4.842;2023-05-23T04:45:01;18.07;;;9.57;;
9884;SDS011;4981;50.966;4.842;2023-05-23T04:47:28;14.43;;;8.97;;
9884;SDS011;4981;50.966;4.842;2023-05-23T04:49:58;17.50;;;9.53;;
9884;SDS011;4981;50.966;4.842;2023-05-23T04:52:27;16.30;;;9.00;;
9884;SDS011;4981;50.966;4.842;2023-05-23T04:54:56;13.70;;;9.10;;
9884;SDS011;4981;50.966;4.842;2023-05-23T04:57:24;14.53;;;8.73;;
9884;SDS011;4981;50.966;4.842;2023-05-23T04:59:51;13.97;;;8.60;;
9884;SDS011;4981;50.966;4.842;2023-05-23T05:02:21;11.33;;;8.50;;
9884;SDS011;4981;50.966;4.842;2023-05-23T05:04:48;16.13;;;8.60;;
9884;SDS011;4981;50.966;4.842;2023-05-23T05:07:15;12.70;;;8.30;;
9884;SDS011;4981;50.966;4.842;2023-05-23T05:09:42;13.63;;;8.53;;
9884;SDS011;4981;50.966;4.842;2023-05-23T05:12:10;12.80;;;7.97;;
9884;SDS011;4981;50.966;4.842;2023-05-23T05:14:37;12.03;;;8.10;;
9884;SDS011;4981;50.966;4.842;2023-05-23T05:17:04;14.23;;;8.20;;
9884;SDS011;4981;50.966;4.842;2023-05-23T05:19:32;14.87;;;8.23;;
9884;SDS011;4981;50.966;4.842;2023-05-23T05:21:59;14.90;;;8.17;;
9884;SDS011;4981;50.966;4.842;2023-05-23T05:24:25;20.23;;;11.57;;
9884;SDS011;4981;50.966;4.842;2023-05-23T05:26:53;14.80;;;8.30;;
9884;SDS011;4981;50.966;4.842;2023-05-23T05:29:21;13.53;;;8.27;;
9884;SDS011;4981;50.966;4.842;2023-05-23T05:31:48;11.60;;;7.90;;
9884;SDS011;4981;50.966;4.842;2023-05-23T05:34:16;14.10;;;8.17;;
9884;SDS011;4981;50.966;4.842;2023-05-23T05:36:43;11.83;;;7.43;;
9884;SDS011;4981;50.966;4.842;2023-05-23T05:39:12;11.97;;;7.47;;
9884;SDS011;4981;50.966;4.842;2023-05-23T05:41:39;19.63;;;9.40;;
9884;SDS011;4981;50.966;4.842;2023-05-23T05:44:07;12.70;;;7.70;;
9884;SDS011;4981;50.966;4.842;2023-05-23T05:46:35;13.03;;;7.77;;
9884;SDS011;4981;50.966;4.842;2023-05-23T05:49:02;10.87;;;7.83;;
9884;SDS011;4981;50.966;4.842;2023-05-23T05:51:29;14.77;;;9.00;;
9884;SDS011;4981;50.966;4.842;2023-05-23T05:53:56;12.40;;;8.17;;
9884;SDS011;4981;50.966;4.842;2023-05-23T05:56:23;15.57;;;8.30;;
9884;SDS011;4981;50.966;4.842;2023-05-23T05:58:50;14.63;;;8.13;;
9884;SDS011;4981;50.966;4.842;2023-05-23T06:01:17;13.33;;;8.27;;
9884;SDS011;4981;50.966;4.842;2023-05-23T06:03:45;14.53;;;8.83;;
9884;SDS011;4981;50.966;4.842;2023-05-23T06:06:12;20.40;;;9.10;;
9884;SDS011;4981;50.966;4.842;2023-05-23T06:08:40;19.87;;;10.17;;
9884;SDS011;4981;50.966;4.842;2023-05-23T06:11:08;20.00;;;9.90;;
9884;SDS011;4981;50.966;4.842;2023-05-23T06:13:36;16.27;;;9.53;;
9884;SDS011;4981;50.966;4.842;2023-05-23T06:16:03;17.80;;;9.07;;
9884;SDS011;4981;50.966;4.842;2023-05-23T06:18:31;19.40;;;8.43;;
9884;SDS011;4981;50.966;4.842;2023-05-23T06:20:59;19.23;;;9.03;;
9884;SDS011;4981;50.966;4.842;2023-05-23T06:23:26;17.83;;;8.60;;
9884;SDS011;4981;50.966;4.842;2023-05-23T06:25:53;18.03;;;7.90;;
9884;SDS011;4981;50.966;4.842;2023-05-23T06:28:20;24.77;;;11.10;;
9884;SDS011;4981;50.966;4.842;2023-05-23T06:30:47;15.63;;;7.53;;
9884;SDS011;4981;50.966;4.842;2023-05-23T06:33:14;15.77;;;7.47;;
9884;SDS011;4981;50.966;4.842;2023-05-23T06:35:41;18.97;;;7.30;;
9884;SDS011;4981;50.966;4.842;2023-05-23T06:38:09;15.70;;;7.43;;
9884;SDS011;4981;50.966;4.842;2023-05-23T06:40:36;18.60;;;7.43;;
9884;SDS011;4981;50.966;4.842;2023-05-23T06:43:03;15.27;;;7.17;;
9884;SDS011;4981;50.966;4.842;2023-05-23T06:45:30;12.63;;;6.80;;
9884;SDS011;4981;50.966;4.842;2023-05-23T06:47:59;15.10;;;6.63;;
9884;SDS011;4981;50.966;4.842;2023-05-23T06:50:26;17.77;;;6.83;;
9884;SDS011;4981;50.966;4.842;2023-05-23T06:52:53;13.60;;;6.43;;
9884;SDS011;4981;50.966;4.842;2023-05-23T06:55:21;15.27;;;7.33;;
9884;SDS011;4981;50.966;4.842;2023-05-23T06:57:48;13.00;;;6.00;;
9884;SDS011;4981;50.966;4.842;2023-05-23T07:00:16;13.77;;;5.70;;
9884;SDS011;4981;50.966;4.842;2023-05-23T07:02:43;14.40;;;5.83;;
9884;SDS011;4981;50.966;4.842;2023-05-23T07:05:12;14.20;;;5.30;;
9884;SDS011;4981;50.966;4.842;2023-05-23T07:07:39;18.30;;;5.67;;
9884;SDS011;4981;50.966;4.842;2023-05-23T08:45:00;17.43;;;6.83;;
9884;SDS011;4981;50.966;4.842;2023-05-23T08:47:30;11.07;;;5.33;;
9884;SDS011;4981;50.966;4.842;2023-05-23T08:50:00;18.77;;;7.37;;
9884;SDS011;4981;50.966;4.842;2023-05-23T08:52:30;19.50;;;6.70;;
9884;SDS011;4981;50.966;4.842;2023-05-23T08:55:00;16.47;;;6.80;;
9884;SDS011;4981;50.966;4.842;2023-05-23T08:57:27;16.67;;;6.60;;
9884;SDS011;4981;50.966;4.842;2023-05-23T08:59:55;13.63;;;7.00;;
9884;SDS011;4981;50.966;4.842;2023-05-23T09:02:24;17.10;;;7.17;;
9884;SDS011;4981;50.966;4.842;2023-05-23T09:04:51;22.73;;;6.10;;
9884;SDS011;4981;50.966;4.842;2023-05-23T09:07:18;13.23;;;6.63;;
9884;SDS011;4981;50.966;4.842;2023-05-23T09:09:45;12.20;;;6.03;;
9884;SDS011;4981;50.966;4.842;2023-05-23T09:12:12;10.03;;;6.30;;
9884;SDS011;4981;50.966;4.842;2023-05-23T09:14:39;13.90;;;6.00;;
9884;SDS011;4981;50.966;4.842;2023-05-23T09:17:10;12.73;;;4.70;;
9884;SDS011;4981;50.966;4.842;2023-05-23T09:19:44;7.27;;;4.47;;
9884;SDS011;4981;50.966;4.842;2023-05-23T09:22:11;15.73;;;4.87;;
9884;SDS011;4981;50.966;4.842;2023-05-23T09:24:38;7.43;;;4.20;;
9884;SDS011;4981;50.966;4.842;2023-05-23T09:27:06;9.30;;;4.67;;
9884;SDS011;4981;50.966;4.842;2023-05-23T09:29:35;7.17;;;4.30;;
9884;SDS011;4981;50.966;4.842;2023-05-23T09:32:09;13.05;;;5.03;;
9884;SDS011;4981;50.966;4.842;2023-05-23T09:34:39;11.57;;;5.47;;
9884;SDS011;4981;50.966;4.842;2023-05-23T09:37:08;11.17;;;5.50;;
9884;SDS011;4981;50.966;4.842;2023-05-23T09:39:44;10.93;;;6.23;;
9884;SDS011;4981;50.966;4.842;2023-05-23T09:42:12;13.43;;;6.70;;
9884;SDS011;4981;50.966;4.842;2023-05-23T09:44:46;12.40;;;7.07;;
9884;SDS011;4981;50.966;4.842;2023-05-23T09:47:13;10.17;;;5.63;;
9884;SDS011;4981;50.966;4.842;2023-05-23T09:49:42;7.73;;;4.80;;
9884;SDS011;4981;50.966;4.842;2023-05-23T09:52:10;12.73;;;5.30;;
9884;SDS011;4981;50.966;4.842;2023-05-23T09:54:37;10.10;;;4.90;;
9884;SDS011;4981;50.966;4.842;2023-05-23T09:57:05;10.77;;;5.30;;
9884;SDS011;4981;50.966;4.842;2023-05-23T09:59:37;11.87;;;5.40;;
9884;SDS011;4981;50.966;4.842;2023-05-23T10:02:06;14.17;;;6.03;;
9884;SDS011;4981;50.966;4.842;2023-05-23T10:04:36;10.00;;;5.63;;
9884;SDS011;4981;50.966;4.842;2023-05-23T10:07:06;11.10;;;5.50;;
9884;SDS011;4981;50.966;4.842;2023-05-23T10:09:41;11.20;;;6.03;;
9884;SDS011;4981;50.966;4.842;2023-05-23T10:12:20;15.10;;;6.53;;
9884;SDS011;4981;50.966;4.842;2023-05-23T10:15:08;11.93;;;5.77;;
9884;SDS011;4981;50.966;4.842;2023-05-23T10:17:38;15.23;;;6.90;;
9884;SDS011;4981;50.966;4.842;2023-05-23T10:20:27;17.67;;;6.70;;
9884;SDS011;4981;50.966;4.842;2023-05-23T10:22:58;11.13;;;5.47;;
9884;SDS011;4981;50.966;4.842;2023-05-23T10:25:26;10.40;;;5.50;;
9884;SDS011;4981;50.966;4.842;2023-05-23T10:27:54;6.90;;;4.23;;
9884;SDS011;4981;50.966;4.842;2023-05-23T10:30:26;12.23;;;5.60;;
9884;SDS011;4981;50.966;4.842;2023-05-23T10:32:53;12.60;;;5.93;;
9884;SDS011;4981;50.966;4.842;2023-05-23T10:35:23;10.83;;;5.70;;
9884;SDS011;4981;50.966;4.842;2023-05-23T10:38:01;10.00;;;5.40;;
9884;SDS011;4981;50.966;4.842;2023-05-23T10:40:35;11.57;;;5.73;;
9884;SDS011;4981;50.966;4.842;2023-05-23T10:43:14;15.37;;;6.53;;
9884;SDS011;4981;50.966;4.842;2023-05-23T10:45:46;7.53;;;5.27;;
9884;SDS011;4981;50.966;4.842;2023-05-23T10:48:20;10.00;;;5.33;;
9884;SDS011;4981;50.966;4.842;2023-05-23T10:51:01;14.50;;;5.60;;
9884;SDS011;4981;50.966;4.842;2023-05-23T10:53:31;10.67;;;5.60;;
9884;SDS011;4981;50.966;4.842;2023-05-23T10:56:01;8.53;;;5.50;;
9884;SDS011;4981;50.966;4.842;2023-05-23T10:58:31;10.77;;;5.00;;
9884;SDS011;4981;50.966;4.842;2023-05-23T11:00:59;7.33;;;3.57;;
9884;SDS011;4981;50.966;4.842;2023-05-23T11:03:34;11.67;;;5.20;;
9884;SDS011;4981;50.966;4.842;2023-05-23T11:06:02;13.83;;;4.90;;
9884;SDS011;4981;50.966;4.842;2023-05-23T11:08:40;9.17;;;4.57;;
9884;SDS011;4981;50.966;4.842;2023-05-23T11:11:10;5.43;;;3.50;;
9884;SDS011;4981;50.966;4.842;2023-05-23T11:13:53;7.97;;;4.13;;
9884;SDS011;4981;50.966;4.842;2023-05-23T11:16:25;7.07;;;3.83;;
9884;SDS011;4981;50.966;4.842;2023-05-23T11:21:50;6.87;;;3.97;;
9884;SDS011;4981;50.966;4.842;2023-05-23T11:24:20;4.90;;;3.40;;
9884;SDS011;4981;50.966;4.842;2023-05-23T11:26:51;5.87;;;3.90;;
9884;SDS011;4981;50.966;4.842;2023-05-23T11:29:19;5.97;;;3.43;;
9884;SDS011;4981;50.966;4.842;2023-05-23T11:31:46;9.43;;;4.00;;
9884;SDS011;4981;50.966;4.842;2023-05-23T11:34:13;9.70;;;3.93;;
9884;SDS011;4981;50.966;4.842;2023-05-23T11:36:40;6.30;;;3.47;;
9884;SDS011;4981;50.966;4.842;2023-05-23T11:39:08;6.33;;;3.50;;
9884;SDS011;4981;50.966;4.842;2023-05-23T11:41:36;7.23;;;3.70;;
9884;SDS011;4981;50.966;4.842;2023-05-23T11:44:09;7.10;;;3.88;;
9884;SDS011;4981;50.966;4.842;2023-05-23T11:46:37;11.50;;;3.20;;
9884;SDS011;4981;50.966;4.842;2023-05-23T11:49:09;12.00;;;3.93;;
9884;SDS011;4981;50.966;4.842;2023-05-23T11:51:36;7.83;;;3.53;;
9884;SDS011;4981;50.966;4.842;2023-05-23T11:54:04;6.83;;;3.00;;
9884;SDS011;4981;50.966;4.842;2023-05-23T11:56:38;6.93;;;2.50;;
9884;SDS011;4981;50.966;4.842;2023-05-23T11:59:05;8.07;;;3.57;;
9884;SDS011;4981;50.966;4.842;2023-05-23T12:01:35;7.57;;;3.40;;
9884;SDS011;4981;50.966;4.842;2023-05-23T12:04:07;13.80;;;3.50;;
9884;SDS011;4981;50.966;4.842;2023-05-23T12:06:36;13.87;;;3.50;;
9884;SDS011;4981;50.966;4.842;2023-05-23T12:09:05;9.27;;;3.80;;
9884;SDS011;4981;50.966;4.842;2023-05-23T12:11:32;13.77;;;3.70;;
9884;SDS011;4981;50.966;4.842;2023-05-23T12:14:01;10.17;;;3.67;;
9884;SDS011;4981;50.966;4.842;2023-05-23T12:16:30;11.83;;;3.57;;
9884;SDS011;4981;50.966;4.842;2023-05-23T12:18:57;10.17;;;3.90;;
9884;SDS011;4981;50.966;4.842;2023-05-23T12:21:25;8.23;;;3.07;;
9884;SDS011;4981;50.966;4.842;2023-05-23T12:23:52;15.93;;;4.20;;
9884;SDS011;4981;50.966;4.842;2023-05-23T12:26:19;13.27;;;3.40;;
9884;SDS011;4981;50.966;4.842;2023-05-23T12:28:47;13.23;;;3.08;;
9884;SDS011;4981;50.966;4.842;2023-05-23T12:31:16;12.43;;;4.20;;
9884;SDS011;4981;50.966;4.842;2023-05-23T12:33:46;8.60;;;3.08;;
9884;SDS011;4981;50.966;4.842;2023-05-23T12:36:14;5.85;;;2.40;;
9884;SDS011;4981;50.966;4.842;2023-05-23T12:38:46;11.35;;;3.85;;
9884;SDS011;4981;50.966;4.842;2023-05-23T12:41:14;12.40;;;3.47;;
9884;SDS011;4981;50.966;4.842;2023-05-23T12:43:48;5.85;;;2.10;;
9884;SDS011;4981;50.966;4.842;2023-05-23T12:46:17;9.38;;;3.55;;
9884;SDS011;4981;50.966;4.842;2023-05-23T12:48:44;10.02;;;3.50;;
9884;SDS011;4981;50.966;4.842;2023-05-23T12:51:12;8.65;;;3.25;;
9884;SDS011;4981;50.966;4.842;2023-05-23T12:53:39;9.90;;;3.50;;
9884;SDS011;4981;50.966;4.842;2023-05-23T12:56:06;9.75;;;3.53;;
9884;SDS011;4981;50.966;4.842;2023-05-23T12:58:33;14.82;;;3.72;;
9884;SDS011;4981;50.966;4.842;2023-05-23T13:01:00;9.30;;;3.17;;
9884;SDS011;4981;50.966;4.842;2023-05-23T13:03:29;4.93;;;2.08;;
9884;SDS011;4981;50.966;4.842;2023-05-23T13:05:56;10.20;;;3.50;;
9884;SDS011;4981;50.966;4.842;2023-05-23T13:08:24;8.77;;;2.83;;
9884;SDS011;4981;50.966;4.842;2023-05-23T13:10:52;7.82;;;3.15;;
9884;SDS011;4981;50.966;4.842;2023-05-23T13:13:19;11.00;;;3.38;;
9884;SDS011;4981;50.966;4.842;2023-05-23T13:15:46;11.13;;;3.42;;
9884;SDS011;4981;50.966;4.842;2023-05-23T13:18:14;12.95;;;3.78;;
9884;SDS011;4981;50.966;4.842;2023-05-23T13:20:42;9.77;;;3.22;;
9884;SDS011;4981;50.966;4.842;2023-05-23T13:23:10;8.38;;;3.50;;
9884;SDS011;4981;50.966;4.842;2023-05-23T13:25:37;16.40;;;3.80;;
9884;SDS011;4981;50.966;4.842;2023-05-23T13:28:04;10.02;;;3.20;;
9884;SDS011;4981;50.966;4.842;2023-05-23T13:30:31;9.32;;;3.72;;
9884;SDS011;4981;50.966;4.842;2023-05-23T13:32:58;9.25;;;3.05;;
9884;SDS011;4981;50.966;4.842;2023-05-23T13:35:25;10.93;;;3.13;;
9884;SDS011;4981;50.966;4.842;2023-05-23T13:37:53;12.30;;;2.92;;
9884;SDS011;4981;50.966;4.842;2023-05-23T13:40:20;8.95;;;3.17;;
9884;SDS011;4981;50.966;4.842;2023-05-23T13:42:49;5.30;;;2.05;;
9884;SDS011;4981;50.966;4.842;2023-05-23T13:45:16;23.45;;;14.55;;
9884;SDS011;4981;50.966;4.842;2023-05-23T13:47:43;21.45;;;7.55;;
9884;SDS011;4981;50.966;4.842;2023-05-23T13:50:11;17.05;;;6.65;;
9884;SDS011;4981;50.966;4.842;2023-05-23T13:52:38;7.18;;;3.13;;
9884;SDS011;4981;50.966;4.842;2023-05-23T13:55:07;13.68;;;3.33;;
9884;SDS011;4981;50.966;4.842;2023-05-23T13:57:35;10.93;;;4.32;;
9884;SDS011;4981;50.966;4.842;2023-05-23T14:00:02;11.35;;;3.33;;
9884;SDS011;4981;50.966;4.842;2023-05-23T14:02:30;9.55;;;2.85;;
9884;SDS011;4981;50.966;4.842;2023-05-23T14:04:57;14.10;;;3.75;;
9884;SDS011;4981;50.966;4.842;2023-05-23T14:07:24;11.48;;;3.80;;
9884;SDS011;4981;50.966;4.842;2023-05-23T14:09:51;7.50;;;3.13;;
9884;SDS011;4981;50.966;4.842;2023-05-23T14:12:19;7.30;;;2.92;;
9884;SDS011;4981;50.966;4.842;2023-05-23T14:14:46;11.20;;;3.40;;
9884;SDS011;4981;50.966;4.842;2023-05-23T14:17:13;6.57;;;3.08;;
9884;SDS011;4981;50.966;4.842;2023-05-23T14:19:41;12.52;;;4.22;;
9884;SDS011;4981;50.966;4.842;2023-05-23T14:22:08;12.40;;;3.40;;
9884;SDS011;4981;50.966;4.842;2023-05-23T14:24:35;9.07;;;3.25;;
9884;SDS011;4981;50.966;4.842;2023-05-23T14:27:02;10.15;;;3.50;;
9884;SDS011;4981;50.966;4.842;2023-05-23T14:29:31;9.13;;;3.60;;
9884;SDS011;4981;50.966;4.842;2023-05-23T14:31:58;7.57;;;2.58;;
9884;SDS011;4981;50.966;4.842;2023-05-23T14:34:27;8.90;;;3.45;;
9884;SDS011;4981;50.966;4.842;2023-05-23T14:36:54;11.45;;;3.30;;
9884;SDS011;4981;50.966;4.842;2023-05-23T14:39:21;13.50;;;3.88;;
9884;SDS011;4981;50.966;4.842;2023-05-23T14:41:49;8.40;;;2.92;;
9884;SDS011;4981;50.966;4.842;2023-05-23T14:44:16;11.27;;;3.60;;
9884;SDS011;4981;50.966;4.842;2023-05-23T14:46:44;8.55;;;3.00;;
9884;SDS011;4981;50.966;4.842;2023-05-23T14:49:13;9.73;;;2.60;;
9884;SDS011;4981;50.966;4.842;2023-05-23T14:51:40;10.48;;;3.75;;
9884;SDS011;4981;50.966;4.842;2023-05-23T14:54:07;11.98;;;3.30;;
9884;SDS011;4981;50.966;4.842;2023-05-23T14:56:34;6.15;;;2.08;;
9884;SDS011;4981;50.966;4.842;2023-05-23T14:59:01;9.23;;;3.55;;
9884;SDS011;4981;50.966;4.842;2023-05-23T15:01:29;19.60;;;4.28;;
9884;SDS011;4981;50.966;4.842;2023-05-23T15:03:58;8.27;;;3.17;;
9884;SDS011;4981;50.966;4.842;2023-05-23T15:06:25;9.93;;;2.83;;
9884;SDS011;4981;50.966;4.842;2023-05-23T15:08:52;13.02;;;3.35;;
9884;SDS011;4981;50.966;4.842;2023-05-23T15:11:19;5.07;;;1.75;;
9884;SDS011;4981;50.966;4.842;2023-05-23T15:13:46;8.55;;;3.13;;
9884;SDS011;4981;50.966;4.842;2023-05-23T15:16:13;8.85;;;2.45;;
9884;SDS011;4981;50.966;4.842;2023-05-23T15:18:40;10.70;;;3.67;;
9884;SDS011;4981;50.966;4.842;2023-05-23T15:21:08;4.93;;;1.95;;
9884;SDS011;4981;50.966;4.842;2023-05-23T15:23:36;11.68;;;2.88;;
9884;SDS011;4981;50.966;4.842;2023-05-23T15:26:03;14.18;;;3.40;;
9884;SDS011;4981;50.966;4.842;2023-05-23T15:28:30;5.55;;;2.08;;
9884;SDS011;4981;50.966;4.842;2023-05-23T15:30:57;4.50;;;1.77;;
9884;SDS011;4981;50.966;4.842;2023-05-23T15:33:24;13.88;;;3.55;;
9884;SDS011;4981;50.966;4.842;2023-05-23T15:35:51;10.98;;;3.20;;
9884;SDS011;4981;50.966;4.842;2023-05-23T15:38:20;10.43;;;3.35;;
9884;SDS011;4981;50.966;4.842;2023-05-23T15:40:47;14.95;;;3.00;;
9884;SDS011;4981;50.966;4.842;2023-05-23T15:43:16;8.18;;;3.30;;
9884;SDS011;4981;50.966;4.842;2023-05-23T15:45:43;8.45;;;3.03;;
9884;SDS011;4981;50.966;4.842;2023-05-23T15:48:10;11.63;;;3.17;;
9884;SDS011;4981;50.966;4.842;2023-05-23T15:50:37;11.57;;;3.25;;
9884;SDS011;4981;50.966;4.842;2023-05-23T15:53:04;14.93;;;3.60;;
9884;SDS011;4981;50.966;4.842;2023-05-23T15:55:32;9.73;;;3.15;;
9884;SDS011;4981;50.966;4.842;2023-05-23T15:58:00;12.98;;;3.58;;
9884;SDS011;4981;50.966;4.842;2023-05-23T16:00:27;13.13;;;3.63;;
9884;SDS011;4981;50.966;4.842;2023-05-23T16:02:54;10.50;;;3.25;;
9884;SDS011;4981;50.966;4.842;2023-05-23T16:05:21;11.63;;;3.25;;
9884;SDS011;4981;50.966;4.842;2023-05-23T16:07:48;14.82;;;7.70;;
9884;SDS011;4981;50.966;4.842;2023-05-23T16:10:15;13.40;;;3.42;;
9884;SDS011;4981;50.966;4.842;2023-05-23T16:12:44;13.27;;;2.90;;
9884;SDS011;4981;50.966;4.842;2023-05-23T16:15:11;13.07;;;3.38;;
9884;SDS011;4981;50.966;4.842;2023-05-23T16:17:38;9.98;;;3.38;;
9884;SDS011;4981;50.966;4.842;2023-05-23T16:20:05;12.40;;;3.17;;
9884;SDS011;4981;50.966;4.842;2023-05-23T16:22:33;8.20;;;2.95;;
9884;SDS011;4981;50.966;4.842;2023-05-23T16:25:00;12.25;;;2.90;;
9884;SDS011;4981;50.966;4.842;2023-05-23T16:27:27;4.25;;;1.67;;
9884;SDS011;4981;50.966;4.842;2023-05-23T16:29:55;10.10;;;3.20;;
9884;SDS011;4981;50.966;4.842;2023-05-23T16:32:22;5.25;;;2.05;;
9884;SDS011;4981;50.966;4.842;2023-05-23T16:34:49;8.10;;;2.33;;
9884;SDS011;4981;50.966;4.842;2023-05-23T16:37:16;8.27;;;2.60;;
9884;SDS011;4981;50.966;4.842;2023-05-23T16:39:43;17.23;;;3.22;;
9884;SDS011;4981;50.966;4.842;2023-05-23T16:42:10;11.20;;;3.08;;
9884;SDS011;4981;50.966;4.842;2023-05-23T16:44:37;5.65;;;3.45;;